Impacts METAR Board
IDs:

KMIA - Miami Intl, FL, US

Updated at: 0300 UTC 06 Dec 2019
Potential Impact None Slight Moderate High
Time 05/15Z 05/16Z 05/17Z 05/18Z 05/19Z 05/20Z 05/21Z 05/22Z 05/23Z 06/00Z 06/01Z 06/02Z 06/03Z
Temp67 69 71 72 72 72 72 71 69 66 65 64 63
Dewpt48 46 45 45 46 46 45 43 42 45 45 47 46
Altim30.13 30.12 30.11 30.09 30.07 30.07 30.08 30.09 30.10 30.12 30.14 30.15 30.16
VIS10 10 10 10 10 10 10 10 10 10 10 10 10
CIG300 250 250 250 250 250 250 250 250 250 250 250 250
CoverBKNBKNBKNBKNOVCOVCOVCBKNBKNBKNBKNBKNBKN
FltCatVFRVFRVFRVFRVFRVFRVFRVFRVFRVFRVFRVFRVFR
WX--------------------------
WDir36035003403203603403020330330320330
WSpd6 7 5 7 6 7 6 6 3 5 3 3 4
WGst-- -- -- -- -- -- -- -- -- -- -- -- --
Raw hourly METARs
KMIA 051453Z 36006KT 10SM BKN300 19/09 A3013 RMK AO2 SLP203 T01940089 51018
KMIA 051553Z 35007KT 10SM BKN250 21/08 A3012 RMK AO2 SLP200 T02060078
KMIA 051653Z VRB05KT 10SM BKN250 22/07 A3011 RMK AO2 SLP195 T02170072
KMIA 051753Z 34007KT 280V010 10SM BKN250 22/07 A3009 RMK AO2 SLP189 T02220072 10222 20150 58014
KMIA 051853Z 32006KT 10SM OVC250 22/08 A3007 RMK AO2 SLP181 T02220078
KMIA 051953Z 36007KT 310V020 10SM OVC250 22/08 A3007 RMK AO2 SLP182 T02220078
KMIA 052053Z 34006KT 10SM OVC250 22/07 A3008 RMK AO2 SLP185 T02220072 55004
KMIA 052153Z 03006KT 10SM FEW040 BKN250 22/06 A3009 RMK AO2 SLP190 T02170061
KMIA 052253Z 02003KT 10SM FEW040 BKN250 21/06 A3010 RMK AO2 SLP192 T02060056
KMIA 052353Z 33005KT 10SM BKN250 19/07 A3012 RMK AO2 SLP199 T01890072 10228 20189 53014
KMIA 060053Z 33003KT 10SM BKN250 18/07 A3014 RMK AO2 SLP205 T01830072
KMIA 060153Z 32003KT 10SM BKN250 18/08 A3015 RMK AO2 SLP211 T01780083
KMIA 060253Z 33004KT 10SM BKN250 17/08 A3016 RMK AO2 SLP213 T01720078 51014



Page loaded:  03:51 UTC  |   07:51 PM Pacific  |   08:51 PM Mountain  |   09:51 PM Central  |   10:51 PM Eastern

 

ADVISORIES

FORECASTS

FORECASTS

OBSERVATIONS

USER TOOLS

ABOUT US